Polaris — JD2797 — position and weather

sailwx.info

Track history (hours):
 
Tides and Currents Weather Stations Pressure Air Temp Water Temp Dewpoint Dewpoint Depression Visibility Wind Speed Wind Dir Waves Ship Positions

Polaris

Last reported at 2015-May-02 16:34 UTC. Time now 2015-May-03 12:51 UTC.
Position N 35°27' E 139°40'.

Length 30 m; draft 2.6 m.

Type: Pilot. MMSI: 431000764.

Date/timePositionNaut miles runAvg speedWind from/ knotsBaromVisibWave heightAir tempDewpointWater temp
2015-May-02 16:34N 35°27' E 139°40'1414.3
2015-May-02 15:34N 35°13' E 139°46'1110.5
2015-May-02 14:33N 35°23' E 139°42'3 2.9
2015-May-02 13:34N 35°26' E 139°42'2 1.6
2015-May-02 12:33N 35°27' E 139°40'0 0.0
2015-May-02 11:34N 35°27' E 139°40'0 0.0
2015-May-02 10:33N 35°27' E 139°40'0 0.0
2015-May-02 09:33N 35°27' E 139°40'0 0.0
2015-May-02 08:33N 35°27' E 139°40'0 0.0
2015-May-02 07:33N 35°27' E 139°40'0 0.0
2015-May-02 06:33N 35°27' E 139°40'0 0.0
2015-May-02 05:33N 35°27' E 139°40'0 0.0
2015-May-02 04:33N 35°27' E 139°40'0 0.0
2015-May-02 03:33N 35°27' E 139°40'1111.3
2015-May-02 02:33N 35°17' E 139°46'5 4.5
2015-May-02 01:33N 35°12' E 139°46'9 9.3
2015-May-02 00:33N 35°19' E 139°39'0 0.0
2015-May-01 23:33N 35°19' E 139°39'4 4.0
2015-May-01 22:34N 35°23' E 139°41'4 4.2
2015-May-01 21:33N 35°27' E 139°40'0 0.0
2015-May-01 20:33N 35°27' E 139°40'0 0.0
2015-May-01 19:33N 35°27' E 139°40'0 0.0
2015-May-01 18:33N 35°27' E 139°40'0 0.0
2015-May-01 17:33N 35°27' E 139°40'0 0.0
2015-May-01 16:33N 35°27' E 139°40'0 0.0
2015-May-01 15:33N 35°27' E 139°40'0 0.0
2015-May-01 14:33N 35°27' E 139°40'0 0.0
2015-May-01 13:33N 35°27' E 139°40'0 0.0
2015-May-01 12:33N 35°27' E 139°40'0 0.0
2015-May-01 11:33N 35°27' E 139°40'0 0.0
2015-May-01 10:33N 35°27' E 139°40'5 4.9
2015-May-01 09:33N 35°30' E 139°44'3 2.6
2015-May-01 08:33N 35°28' E 139°43'  
2015-Apr-28 04:33N 35°27' E 139°40'1212.5
2015-Apr-28 03:33N 35°15' E 139°46'5 5.1
2015-Apr-28 02:33N 35°19' E 139°43'7 6.8
2015-Apr-28 01:33N 35°23' E 139°49'2 2.1
2015-Apr-28 00:33N 35°22' E 139°52'1111.0
2015-Apr-27 23:33N 35°27' E 139°40'0 0.0
2015-Apr-26 22:34N 35°27' E 139°40'1313.0
2015-Apr-26 21:33N 35°15' E 139°45'7 6.5
2015-Apr-26 20:33N 35°21' E 139°42'6 6.0
2015-Apr-26 19:33N 35°27' E 139°43'3 2.7
2015-Apr-26 18:33N 35°27' E 139°40'0 0.0
2015-Apr-26 17:33N 35°27' E 139°40'0 0.0
2015-Apr-26 16:33N 35°27' E 139°40'0 0.0
2015-Apr-26 15:33N 35°27' E 139°40'0 0.0
2015-Apr-26 14:33N 35°27' E 139°40'0 0.0
2015-Apr-26 13:33N 35°27' E 139°40'2 1.7
2015-Apr-26 12:33N 35°26' E 139°42'1414.2
2015-Apr-26 11:34N 35°12' E 139°46'1212.0
2015-Apr-26 10:33N 35°24' E 139°43'3 2.6
2015-Apr-26 09:33N 35°26' E 139°42'2 1.8
2015-Apr-26 08:33N 35°27' E 139°40'0 0.0
2015-Apr-26 07:33N 35°27' E 139°40'0 0.0
2015-Apr-26 06:33N 35°27' E 139°40'0 0.0
2015-Apr-26 05:33N 35°27' E 139°40'0 0.0
2015-Apr-26 04:33N 35°27' E 139°40'0 0.0
2015-Apr-26 03:33N 35°27' E 139°40'0 0.0
2015-Apr-26 02:33N 35°27' E 139°40'0 0.0
2015-Apr-26 01:33N 35°27' E 139°40'0 0.0
2015-Apr-26 00:33N 35°27' E 139°40'0 0.4
2015-Apr-25 23:33N 35°27' E 139°40'1010.0
2015-Apr-25 22:33N 35°18' E 139°45'8 7.6
2015-Apr-25 21:33N 35°10' E 139°47'1312.7
2015-Apr-25 20:34N 35°22' E 139°41'5 4.9
2015-Apr-25 19:33N 35°27' E 139°40'0 0.0
2015-Apr-25 18:33N 35°27' E 139°40'0 0.0
2015-Apr-25 17:33N 35°27' E 139°40'0 0.0
2015-Apr-25 16:33N 35°27' E 139°40'0 0.0
2015-Apr-25 15:33N 35°27' E 139°40'0 0.0
2015-Apr-25 14:33N 35°27' E 139°40'0 0.0
2015-Apr-25 13:33N 35°27' E 139°40'0 0.0
2015-Apr-25 12:33N 35°27' E 139°40'0 0.0
2015-Apr-25 11:33N 35°27' E 139°40'0 0.0
2015-Apr-25 10:33N 35°27' E 139°40'7 6.8
2015-Apr-25 09:33N 35°20' E 139°42'4 4.4
2015-Apr-25 08:33N 35°17' E 139°45'10 9.8
2015-Apr-25 07:33N 35°26' E 139°42'0 0.3
2015-Apr-25 06:34N 35°26' E 139°42'  
2015-Apr-22 23:10N 35°27' E 139°40'5 9.0
2015-Apr-22 22:33N 35°29' E 139°46'1 1.1
2015-Apr-22 21:33N 35°29' E 139°47'0 0.2
2015-Apr-22 20:33N 35°29' E 139°47'0 0.1
2015-Apr-22 19:33N 35°29' E 139°47'0 0.0
2015-Apr-22 18:33N 35°29' E 139°47'0 0.1
2015-Apr-22 17:33N 35°29' E 139°47'  
Track history (hours):
 
Tides and Currents Weather Stations Pressure Air Temp Water Temp Dewpoint Dewpoint Depression Visibility Wind Speed Wind Dir Waves Ship Positions

Polaris

Last reported at 2015-May-02 16:34 UTC. Time now 2015-May-03 12:51 UTC.
Position N 35°27' E 139°40'.

Length 30 m; draft 2.6 m.

Type: Pilot. MMSI: 431000764.

Date/timePositionNaut miles runAvg speedWind from/ knotsBaromVisibWave heightAir tempDewpointWater temp
2015-May-02 16:34N 35°27' E 139°40'1414.3
2015-May-02 15:34N 35°13' E 139°46'1110.5
2015-May-02 14:33N 35°23' E 139°42'3 2.9
2015-May-02 13:34N 35°26' E 139°42'2 1.6
2015-May-02 12:33N 35°27' E 139°40'0 0.0
2015-May-02 11:34N 35°27' E 139°40'0 0.0
2015-May-02 10:33N 35°27' E 139°40'0 0.0
2015-May-02 09:33N 35°27' E 139°40'0 0.0
2015-May-02 08:33N 35°27' E 139°40'0 0.0
2015-May-02 07:33N 35°27' E 139°40'0 0.0
2015-May-02 06:33N 35°27' E 139°40'0 0.0
2015-May-02 05:33N 35°27' E 139°40'0 0.0
2015-May-02 04:33N 35°27' E 139°40'0 0.0
2015-May-02 03:33N 35°27' E 139°40'1111.3
2015-May-02 02:33N 35°17' E 139°46'5 4.5
2015-May-02 01:33N 35°12' E 139°46'9 9.3
2015-May-02 00:33N 35°19' E 139°39'0 0.0
2015-May-01 23:33N 35°19' E 139°39'4 4.0
2015-May-01 22:34N 35°23' E 139°41'4 4.2
2015-May-01 21:33N 35°27' E 139°40'0 0.0
2015-May-01 20:33N 35°27' E 139°40'0 0.0
2015-May-01 19:33N 35°27' E 139°40'0 0.0
2015-May-01 18:33N 35°27' E 139°40'0 0.0
2015-May-01 17:33N 35°27' E 139°40'0 0.0
2015-May-01 16:33N 35°27' E 139°40'0 0.0
2015-May-01 15:33N 35°27' E 139°40'0 0.0
2015-May-01 14:33N 35°27' E 139°40'0 0.0
2015-May-01 13:33N 35°27' E 139°40'0 0.0
2015-May-01 12:33N 35°27' E 139°40'0 0.0
2015-May-01 11:33N 35°27' E 139°40'0 0.0
2015-May-01 10:33N 35°27' E 139°40'5 4.9
2015-May-01 09:33N 35°30' E 139°44'3 2.6
2015-May-01 08:33N 35°28' E 139°43'  
2015-Apr-28 04:33N 35°27' E 139°40'1212.5
2015-Apr-28 03:33N 35°15' E 139°46'5 5.1
2015-Apr-28 02:33N 35°19' E 139°43'7 6.8
2015-Apr-28 01:33N 35°23' E 139°49'2 2.1
2015-Apr-28 00:33N 35°22' E 139°52'1111.0
2015-Apr-27 23:33N 35°27' E 139°40'0 0.0
2015-Apr-26 22:34N 35°27' E 139°40'1313.0
2015-Apr-26 21:33N 35°15' E 139°45'7 6.5
2015-Apr-26 20:33N 35°21' E 139°42'6 6.0
2015-Apr-26 19:33N 35°27' E 139°43'3 2.7
2015-Apr-26 18:33N 35°27' E 139°40'0 0.0
2015-Apr-26 17:33N 35°27' E 139°40'0 0.0
2015-Apr-26 16:33N 35°27' E 139°40'0 0.0
2015-Apr-26 15:33N 35°27' E 139°40'0 0.0
2015-Apr-26 14:33N 35°27' E 139°40'0 0.0
2015-Apr-26 13:33N 35°27' E 139°40'2 1.7
2015-Apr-26 12:33N 35°26' E 139°42'1414.2
2015-Apr-26 11:34N 35°12' E 139°46'1212.0
2015-Apr-26 10:33N 35°24' E 139°43'3 2.6
2015-Apr-26 09:33N 35°26' E 139°42'2 1.8
2015-Apr-26 08:33N 35°27' E 139°40'0 0.0
2015-Apr-26 07:33N 35°27' E 139°40'0 0.0
2015-Apr-26 06:33N 35°27' E 139°40'0 0.0
2015-Apr-26 05:33N 35°27' E 139°40'0 0.0
2015-Apr-26 04:33N 35°27' E 139°40'0 0.0
2015-Apr-26 03:33N 35°27' E 139°40'0 0.0
2015-Apr-26 02:33N 35°27' E 139°40'0 0.0
2015-Apr-26 01:33N 35°27' E 139°40'0 0.0
2015-Apr-26 00:33N 35°27' E 139°40'0 0.4
2015-Apr-25 23:33N 35°27' E 139°40'1010.0
2015-Apr-25 22:33N 35°18' E 139°45'8 7.6
2015-Apr-25 21:33N 35°10' E 139°47'1312.7
2015-Apr-25 20:34N 35°22' E 139°41'5 4.9
2015-Apr-25 19:33N 35°27' E 139°40'0 0.0
2015-Apr-25 18:33N 35°27' E 139°40'0 0.0
2015-Apr-25 17:33N 35°27' E 139°40'0 0.0
2015-Apr-25 16:33N 35°27' E 139°40'0 0.0
2015-Apr-25 15:33N 35°27' E 139°40'0 0.0
2015-Apr-25 14:33N 35°27' E 139°40'0 0.0
2015-Apr-25 13:33N 35°27' E 139°40'0 0.0
2015-Apr-25 12:33N 35°27' E 139°40'0 0.0
2015-Apr-25 11:33N 35°27' E 139°40'0 0.0
2015-Apr-25 10:33N 35°27' E 139°40'7 6.8
2015-Apr-25 09:33N 35°20' E 139°42'4 4.4
2015-Apr-25 08:33N 35°17' E 139°45'10 9.8
2015-Apr-25 07:33N 35°26' E 139°42'0 0.3
2015-Apr-25 06:34N 35°26' E 139°42'  
2015-Apr-22 23:10N 35°27' E 139°40'5 9.0
2015-Apr-22 22:33N 35°29' E 139°46'1 1.1
2015-Apr-22 21:33N 35°29' E 139°47'0 0.2
2015-Apr-22 20:33N 35°29' E 139°47'0 0.1
2015-Apr-22 19:33N 35°29' E 139°47'0 0.0
2015-Apr-22 18:33N 35°29' E 139°47'0 0.1
2015-Apr-22 17:33N 35°29' E 139°47'  

Dump ship's entire track history